createdAt,value
2022-10-02T00:01:44.510Z,10.77
2022-10-02T00:04:15.145Z,17.58
2022-10-02T00:06:49.480Z,15.15
2022-10-02T00:09:23.459Z,15.48
2022-10-02T00:11:54.179Z,19.80
2022-10-02T00:14:23.177Z,20.48
2022-10-02T00:16:55.889Z,10.80
2022-10-02T00:19:22.386Z,12.52
2022-10-02T00:21:48.662Z,18.02
2022-10-02T00:24:18.235Z,19.23
2022-10-02T00:26:57.267Z,19.73
2022-10-02T00:29:51.435Z,22.40
2022-10-02T00:32:36.087Z,19.98
2022-10-02T00:35:20.858Z,19.92
2022-10-02T00:37:53.206Z,23.80
2022-10-02T00:41:07.290Z,22.23
2022-10-02T00:44:05.437Z,15.50
2022-10-02T00:46:45.387Z,24.65
2022-10-02T00:50:03.548Z,20.27
2022-10-02T00:52:32.753Z,17.80
2022-10-02T00:55:05.132Z,19.92
2022-10-02T00:57:55.698Z,19.67
2022-10-02T01:00:23.108Z,25.27
2022-10-02T01:03:08.889Z,23.42
2022-10-02T01:05:35.464Z,24.50
2022-10-02T01:08:02.299Z,23.88
2022-10-02T01:10:29.340Z,23.95
2022-10-02T01:12:56.952Z,24.48
2022-10-02T01:15:29.843Z,21.27
2022-10-02T01:17:56.571Z,31.15
2022-10-02T01:20:34.743Z,23.13
2022-10-02T01:23:06.709Z,18.27
2022-10-02T01:25:33.338Z,19.10
2022-10-02T01:27:59.940Z,19.25
2022-10-02T01:30:35.554Z,15.77
2022-10-02T01:33:03.503Z,20.38
2022-10-02T01:35:32.159Z,20.88
2022-10-02T01:37:59.283Z,25.02
2022-10-02T01:40:37.294Z,28.48
2022-10-02T01:43:07.947Z,21.80
2022-10-02T01:45:53.410Z,21.83
2022-10-02T01:48:42.822Z,24.25
2022-10-02T01:51:39.211Z,28.13
2022-10-02T01:54:08.813Z,25.15
2022-10-02T01:56:48.774Z,27.75
2022-10-02T01:59:33.781Z,29.85
2022-10-02T02:02:17.723Z,25.15
2022-10-02T02:04:54.608Z,22.05
2022-10-02T02:07:35.463Z,34.55
2022-10-02T02:10:26.694Z,35.55
2022-10-02T02:13:16.371Z,29.13
2022-10-02T02:15:58.322Z,34.08
2022-10-02T02:18:44.017Z,32.40
2022-10-02T02:21:23.400Z,30.50
2022-10-02T02:23:50.352Z,33.63
2022-10-02T02:26:18.772Z,25.52
2022-10-02T02:28:49.172Z,34.30
2022-10-02T02:31:20.326Z,34.65
2022-10-02T02:33:53.249Z,35.58
2022-10-02T02:36:21.576Z,37.63
2022-10-02T02:39:12.885Z,28.15
2022-10-02T02:41:43.847Z,33.28
2022-10-02T02:44:27.962Z,31.90
2022-10-02T02:47:06.595Z,35.28
2022-10-02T02:49:41.934Z,31.63
2022-10-02T02:52:12.771Z,37.72
2022-10-02T02:54:43.734Z,40.67
2022-10-02T02:57:11.295Z,28.08
2022-10-02T02:59:39.048Z,26.80
2022-10-02T03:02:05.710Z,29.98
2022-10-02T03:04:32.239Z,26.88
2022-10-02T03:07:01.735Z,36.67
2022-10-02T03:09:32.319Z,39.50
2022-10-02T03:12:08.404Z,35.88
2022-10-02T03:15:01.175Z,39.45
2022-10-02T03:17:59.407Z,40.63
2022-10-02T03:20:43.090Z,34.20
2022-10-02T03:23:15.124Z,36.70
2022-10-02T03:25:54.106Z,41.20
2022-10-02T03:28:53.908Z,51.25
2022-10-02T03:31:15.815Z,43.33
2022-10-02T03:33:43.716Z,38.95
2022-10-02T03:36:11.668Z,43.78
2022-10-02T03:38:39.621Z,41.08
2022-10-02T03:41:06.251Z,39.15
2022-10-02T03:43:32.680Z,36.63
2022-10-02T03:45:59.222Z,43.55
2022-10-02T03:48:25.698Z,44.95
2022-10-02T03:50:52.306Z,39.17
2022-10-02T03:53:21.808Z,36.83
2022-10-02T03:55:53.899Z,41.65
2022-10-02T03:58:20.324Z,38.92
2022-10-02T04:00:52.841Z,24.55
2022-10-02T04:03:40.462Z,34.83
2022-10-02T04:06:12.453Z,37.75
2022-10-02T04:09:16.777Z,32.15
2022-10-02T04:11:59.536Z,25.55
2022-10-02T04:14:30.660Z,27.35
2022-10-02T04:17:02.104Z,37.42
2022-10-02T04:19:41.502Z,26.63
2022-10-02T04:22:15.985Z,27.92
2022-10-02T04:24:52.121Z,39.47
2022-10-02T04:27:30.997Z,34.83
2022-10-02T04:30:00.459Z,28.60
2022-10-02T04:32:32.652Z,35.15
2022-10-02T04:37:51.487Z,36.72
2022-10-02T04:40:27.132Z,25.02
2022-10-02T04:43:18.688Z,28.23
2022-10-02T04:46:06.995Z,41.70
2022-10-02T04:48:56.149Z,35.63
2022-10-02T04:51:39.332Z,30.65
2022-10-02T04:54:24.552Z,34.10
2022-10-02T04:57:20.685Z,35.13
2022-10-02T05:00:00.970Z,35.53
2022-10-02T05:02:36.689Z,39.67
2022-10-02T05:05:19.460Z,35.10
2022-10-02T05:11:57.024Z,38.45
2022-10-02T05:14:45.020Z,31.17
2022-10-02T05:17:37.091Z,35.63
2022-10-02T05:20:27.264Z,32.75
2022-10-02T05:23:14.965Z,29.98
2022-10-02T05:26:09.597Z,36.65
2022-10-02T05:28:58.192Z,31.13
2022-10-02T05:31:46.463Z,29.58
2022-10-02T05:34:31.220Z,27.67
2022-10-02T05:37:28.346Z,32.45
2022-10-02T05:40:00.403Z,24.17
2022-10-02T05:42:33.316Z,28.17
2022-10-02T05:45:09.867Z,22.58
2022-10-02T05:47:44.945Z,34.85
2022-10-02T05:50:17.599Z,25.52
2022-10-02T05:52:55.537Z,22.50
2022-10-02T05:55:28.294Z,21.98
2022-10-02T06:01:39.988Z,19.58
2022-10-02T06:04:34.028Z,26.08
2022-10-02T06:07:20.267Z,28.63
2022-10-02T06:09:49.914Z,15.48
2022-10-02T06:12:39.773Z,14.07
2022-10-02T06:15:10.797Z,17.17
2022-10-02T06:17:42.242Z,15.00
2022-10-02T06:20:14.257Z,13.68
2022-10-02T06:22:55.698Z,21.85
2022-10-02T06:25:32.452Z,14.18
2022-10-02T06:28:14.544Z,14.50
2022-10-02T06:31:07.884Z,15.35
2022-10-02T06:33:34.364Z,18.80
2022-10-02T06:36:27.300Z,17.80
2022-10-02T06:39:51.597Z,19.13
2022-10-02T06:42:41.926Z,19.65
2022-10-02T06:45:27.966Z,15.23
2022-10-02T06:48:48.267Z,15.52
2022-10-02T06:51:22.464Z,13.57
2022-10-02T06:54:19.166Z,17.02
2022-10-02T06:56:55.743Z,13.90
2022-10-02T06:59:55.324Z,20.58
2022-10-02T07:02:59.250Z,17.02
2022-10-02T07:05:37.633Z,21.40
2022-10-02T07:08:45.464Z,18.05
2022-10-02T07:11:32.732Z,16.20
2022-10-02T07:14:44.446Z,18.30
2022-10-02T07:21:30.374Z,21.98
2022-10-02T07:24:02.589Z,15.68
2022-10-02T07:26:51.223Z,14.65
2022-10-02T07:30:00.424Z,16.20
2022-10-02T07:32:39.248Z,17.13
2022-10-02T07:35:30.502Z,18.55
2022-10-02T07:38:43.365Z,19.30
2022-10-02T07:41:42.287Z,22.92
2022-10-02T07:44:18.326Z,14.88
2022-10-02T07:47:02.329Z,19.23
2022-10-02T07:49:53.462Z,17.60
2022-10-02T07:52:35.967Z,17.70
2022-10-02T07:55:10.829Z,16.08
2022-10-02T07:57:40.129Z,18.88
2022-10-02T08:00:24.622Z,17.05
2022-10-02T08:03:08.149Z,19.02
2022-10-02T08:05:44.618Z,20.35
2022-10-02T08:08:22.298Z,23.10
2022-10-02T08:11:16.360Z,14.80
2022-10-02T08:14:05.233Z,27.50
2022-10-02T08:16:36.975Z,17.65
2022-10-02T08:19:07.504Z,18.90
2022-10-02T08:21:40.604Z,15.18
2022-10-02T08:24:12.038Z,18.73
2022-10-02T08:27:20.923Z,20.83
2022-10-02T08:29:55.352Z,14.95
2022-10-02T08:32:22.599Z,30.50
2022-10-02T08:34:49.213Z,17.90
2022-10-02T08:37:37.466Z,15.68
2022-10-02T08:40:22.509Z,20.92
2022-10-02T08:43:08.345Z,14.77
2022-10-02T08:45:56.623Z,22.80
2022-10-02T08:48:42.018Z,19.35
2022-10-02T08:51:26.809Z,19.65
2022-10-02T08:54:38.693Z,20.02
2022-10-02T08:57:26.121Z,22.15
2022-10-02T09:00:20.002Z,25.65
2022-10-02T09:03:25.056Z,14.70
2022-10-02T09:06:20.608Z,20.08
2022-10-02T09:09:17.951Z,18.10
2022-10-02T09:12:21.745Z,17.50
2022-10-02T09:15:28.126Z,20.92
2022-10-02T09:18:16.155Z,21.48
2022-10-02T09:21:11.434Z,18.38
2022-10-02T09:23:56.899Z,19.00
2022-10-02T09:26:34.301Z,15.55
2022-10-02T09:29:15.650Z,18.92
2022-10-02T09:32:34.568Z,15.13
2022-10-02T09:35:23.051Z,24.05
2022-10-02T09:38:05.952Z,19.45
2022-10-02T09:40:43.441Z,23.63
2022-10-02T09:43:53.316Z,17.42
2022-10-02T09:46:53.110Z,19.13
2022-10-02T09:49:57.457Z,22.85
2022-10-02T09:52:43.711Z,16.25
2022-10-02T09:55:35.268Z,19.13
2022-10-02T09:58:36.603Z,13.87
2022-10-02T10:01:31.020Z,19.38
2022-10-02T10:04:37.972Z,16.38
2022-10-02T10:07:22.724Z,19.10
2022-10-02T10:09:52.123Z,20.25
2022-10-02T10:12:29.520Z,18.63
2022-10-02T10:15:20.623Z,16.73
2022-10-02T10:18:06.301Z,11.60
2022-10-02T10:20:50.446Z,18.30
2022-10-02T10:23:41.534Z,14.48
2022-10-02T10:26:27.577Z,13.30
2022-10-02T10:29:31.823Z,10.90
2022-10-02T10:32:20.948Z,14.23
2022-10-02T10:35:26.609Z,15.38
2022-10-02T10:38:34.850Z,10.40
2022-10-02T10:41:22.622Z,7.45
2022-10-02T10:44:10.633Z,8.88
2022-10-02T10:46:59.012Z,10.40
2022-10-02T10:49:38.750Z,10.20
2022-10-02T10:52:16.186Z,12.15
2022-10-02T10:54:56.203Z,12.68
2022-10-02T10:57:29.573Z,7.25
2022-10-02T11:00:18.486Z,10.70
2022-10-02T11:03:08.098Z,9.85
2022-10-02T11:05:52.985Z,15.80
2022-10-02T11:08:24.472Z,12.65
2022-10-02T11:11:23.382Z,17.10
2022-10-02T11:14:24.160Z,10.80
2022-10-02T11:17:35.238Z,11.23
2022-10-02T11:20:24.098Z,15.10
2022-10-02T11:22:57.178Z,8.85
2022-10-02T11:26:09.935Z,10.05
2022-10-02T11:29:06.368Z,12.30
2022-10-02T11:31:40.667Z,8.02
2022-10-02T11:34:42.716Z,9.50
2022-10-02T11:37:51.819Z,9.68
2022-10-02T11:40:34.038Z,10.38
2022-10-02T11:45:59.505Z,8.48
2022-10-02T11:48:49.896Z,6.28
2022-10-02T11:51:24.964Z,6.10
2022-10-02T11:54:16.359Z,7.43
2022-10-02T11:57:35.146Z,3.67
2022-10-02T12:00:39.098Z,9.23
2022-10-02T12:03:31.450Z,7.70
2022-10-02T12:09:00.397Z,11.57
2022-10-02T12:11:53.955Z,5.57
2022-10-02T12:14:32.242Z,11.10
2022-10-02T12:17:13.215Z,9.20
2022-10-02T12:20:18.655Z,6.70
2022-10-02T12:23:09.654Z,10.65
2022-10-02T12:26:07.035Z,11.40
2022-10-02T12:28:56.156Z,10.00
2022-10-02T12:31:51.330Z,9.43
2022-10-02T12:34:42.376Z,9.20
2022-10-02T12:37:17.820Z,6.03
2022-10-02T12:39:54.810Z,9.48
2022-10-02T12:42:30.857Z,9.82
2022-10-02T12:45:32.364Z,8.63
2022-10-02T12:48:01.760Z,8.75
2022-10-02T12:50:39.879Z,11.82
2022-10-02T12:53:49.719Z,8.10
2022-10-02T12:56:41.011Z,6.43
2022-10-02T12:59:22.636Z,10.20
2022-10-02T13:01:55.114Z,6.80
2022-10-02T13:04:24.715Z,5.38
2022-10-02T13:07:30.281Z,7.65
2022-10-02T13:09:56.578Z,7.97
2022-10-02T13:12:50.875Z,10.35
2022-10-02T13:15:27.219Z,6.57
2022-10-02T13:18:25.297Z,10.07
2022-10-02T13:21:04.914Z,9.13
2022-10-02T13:23:49.631Z,11.75
2022-10-02T13:26:37.453Z,6.28
2022-10-02T13:29:20.941Z,8.85
2022-10-02T13:32:11.803Z,9.98
2022-10-02T13:35:02.928Z,8.32
2022-10-02T13:37:41.918Z,9.63
2022-10-02T13:40:46.411Z,8.32
2022-10-02T13:43:38.373Z,5.47
2022-10-02T13:46:15.303Z,7.00
2022-10-02T13:48:55.207Z,7.32
2022-10-02T13:51:44.587Z,7.78
2022-10-02T13:54:25.037Z,5.80
2022-10-02T13:56:58.053Z,6.60
2022-10-02T13:59:35.481Z,8.13
2022-10-02T14:02:39.513Z,9.00
2022-10-02T14:05:11.202Z,11.27
2022-10-02T14:08:20.771Z,8.82
2022-10-02T14:11:00.033Z,7.95
2022-10-02T14:13:48.192Z,18.75
2022-10-02T14:16:48.812Z,11.25
2022-10-02T14:19:29.232Z,9.15
2022-10-02T14:22:34.497Z,11.25
2022-10-02T14:25:20.379Z,9.05
2022-10-02T14:28:25.427Z,13.50
2022-10-02T14:31:14.361Z,10.32
2022-10-02T14:34:02.041Z,9.50
2022-10-02T14:36:50.883Z,10.00
2022-10-02T14:39:36.025Z,8.57
2022-10-02T14:42:22.079Z,6.13
2022-10-02T14:45:06.753Z,7.95
2022-10-02T14:48:07.643Z,11.73
2022-10-02T14:50:50.824Z,7.35
2022-10-02T14:53:36.080Z,12.43
2022-10-02T14:56:29.993Z,10.23
2022-10-02T14:59:21.191Z,5.72
2022-10-02T15:02:08.623Z,5.75
2022-10-02T15:04:41.164Z,7.35
2022-10-02T15:07:12.858Z,10.13
2022-10-02T15:09:39.222Z,6.57
2022-10-02T15:12:08.501Z,4.00
2022-10-02T15:14:41.773Z,14.50
2022-10-02T15:17:32.841Z,8.50
2022-10-02T15:20:29.812Z,8.32
2022-10-02T15:23:04.624Z,6.35
2022-10-02T15:25:36.990Z,9.30
2022-10-02T15:28:35.970Z,8.85
2022-10-02T15:31:13.760Z,7.15
2022-10-02T15:33:46.974Z,10.45
2022-10-02T15:36:41.064Z,7.40
2022-10-02T15:39:26.335Z,4.25
2022-10-02T15:42:12.233Z,8.75
2022-10-02T15:45:06.283Z,10.52
2022-10-02T15:47:45.677Z,7.18
2022-10-02T15:50:30.778Z,6.60
2022-10-02T15:53:03.980Z,10.93
2022-10-02T15:55:37.542Z,9.65
2022-10-02T16:02:03.304Z,5.13
2022-10-02T16:04:39.432Z,5.75
2022-10-02T16:07:36.474Z,9.90
2022-10-02T16:10:03.241Z,8.38
2022-10-02T16:13:13.279Z,8.30
2022-10-02T16:15:52.054Z,7.85
2022-10-02T16:18:45.769Z,9.10
2022-10-02T16:21:33.258Z,8.73
2022-10-02T16:24:01.597Z,8.35
2022-10-02T16:26:55.727Z,10.27
2022-10-02T16:29:53.111Z,10.35
2022-10-02T16:32:46.855Z,10.10
2022-10-02T16:35:20.312Z,13.65
2022-10-02T16:37:56.261Z,9.07
2022-10-02T16:40:25.840Z,7.68
2022-10-02T16:43:40.872Z,11.52
2022-10-02T16:46:17.015Z,8.43
2022-10-02T16:49:09.781Z,9.23
2022-10-02T16:51:45.820Z,8.95
2022-10-02T16:54:21.371Z,13.68
2022-10-02T16:56:59.004Z,6.70
2022-10-02T16:59:40.541Z,12.25
2022-10-02T17:02:53.505Z,9.30
2022-10-02T17:05:25.048Z,14.68
2022-10-02T17:08:29.488Z,13.15
2022-10-02T17:11:18.533Z,10.38
2022-10-02T17:13:59.030Z,11.40
2022-10-02T17:16:37.235Z,8.90
2022-10-02T17:19:22.014Z,6.43
2022-10-02T17:21:55.486Z,17.48
2022-10-02T17:24:48.009Z,6.65
2022-10-02T17:30:16.298Z,12.60
2022-10-02T17:32:50.042Z,7.57
2022-10-02T17:35:29.315Z,7.22
2022-10-02T17:38:09.996Z,7.75
2022-10-02T17:40:43.027Z,6.93
2022-10-02T17:43:21.316Z,13.27
2022-10-02T17:46:14.128Z,8.57
2022-10-02T17:48:45.956Z,10.75
2022-10-02T17:51:50.845Z,10.32
2022-10-02T17:54:54.001Z,7.15
2022-10-02T17:57:38.521Z,7.90
2022-10-02T18:00:21.939Z,14.32
2022-10-02T18:03:09.951Z,12.43
2022-10-02T18:06:01.877Z,9.60
2022-10-02T18:08:42.033Z,13.80
2022-10-02T18:11:18.731Z,6.90
2022-10-02T18:13:59.557Z,9.77
2022-10-02T18:16:32.426Z,13.98
2022-10-02T18:19:23.925Z,14.65
2022-10-02T18:21:53.868Z,8.75
2022-10-02T18:24:42.795Z,6.93
2022-10-02T18:27:36.988Z,9.48
2022-10-02T18:30:42.968Z,10.52
2022-10-02T18:33:28.047Z,9.65
2022-10-02T18:36:31.497Z,14.05
2022-10-02T18:39:00.326Z,9.50
2022-10-02T18:41:41.861Z,12.95
2022-10-02T18:44:33.975Z,11.03
2022-10-02T18:47:20.599Z,9.30
2022-10-02T18:49:53.532Z,10.52
2022-10-02T18:53:01.685Z,13.75
2022-10-02T18:55:34.523Z,12.15
2022-10-02T18:58:07.889Z,12.00
2022-10-02T19:01:05.164Z,8.13
2022-10-02T19:03:57.538Z,11.32
2022-10-02T19:07:06.017Z,11.05
2022-10-02T19:09:32.549Z,8.70
2022-10-02T19:12:05.100Z,7.45
2022-10-02T19:14:33.480Z,14.77
2022-10-02T19:17:11.081Z,9.18
2022-10-02T19:19:39.103Z,11.02
2022-10-02T19:22:21.237Z,17.02
2022-10-02T19:25:16.028Z,14.95
2022-10-02T19:27:48.533Z,12.48
2022-10-02T19:30:25.519Z,9.18
2022-10-02T19:32:53.981Z,10.93
2022-10-02T19:35:28.445Z,13.18
2022-10-02T19:38:21.684Z,14.60
2022-10-02T19:40:52.710Z,11.07
2022-10-02T19:43:28.702Z,11.38
2022-10-02T19:46:08.507Z,11.32
2022-10-02T19:49:04.066Z,10.02
2022-10-02T19:51:42.306Z,14.15
2022-10-02T19:54:13.674Z,13.88
2022-10-02T19:56:44.652Z,8.77
2022-10-02T19:59:18.920Z,11.70
2022-10-02T20:01:58.958Z,13.95
2022-10-02T20:04:27.198Z,12.07
2022-10-02T20:06:56.162Z,9.50
2022-10-02T20:09:47.834Z,10.93
2022-10-02T20:12:19.307Z,15.47
2022-10-02T20:14:56.122Z,11.05
2022-10-02T20:17:22.927Z,14.45
2022-10-02T20:19:52.307Z,11.10
2022-10-02T20:23:15.711Z,16.98
2022-10-02T20:25:48.163Z,16.15
2022-10-02T20:28:33.453Z,10.05
2022-10-02T20:31:12.560Z,13.38
2022-10-02T20:33:47.195Z,11.98
2022-10-02T20:36:47.911Z,12.65
2022-10-02T20:39:16.378Z,16.55
2022-10-02T20:42:10.164Z,13.93
2022-10-02T20:44:37.513Z,12.95
2022-10-02T20:47:28.843Z,14.70
2022-10-02T20:50:13.836Z,16.05
2022-10-02T20:52:40.260Z,10.90
2022-10-02T20:55:40.680Z,11.80
2022-10-02T20:58:25.282Z,11.93
2022-10-02T21:01:07.090Z,11.35
2022-10-02T21:04:01.544Z,13.73
2022-10-02T21:07:15.756Z,14.63
2022-10-02T21:10:07.936Z,15.02
2022-10-02T21:12:47.220Z,15.75
2022-10-02T21:15:42.285Z,17.35
2022-10-02T21:18:30.347Z,11.23
2022-10-02T21:21:18.931Z,11.38
2022-10-02T21:24:14.810Z,13.57
2022-10-02T21:30:51.035Z,16.80
2022-10-02T21:33:35.022Z,16.30
2022-10-02T21:36:09.688Z,18.98
2022-10-02T21:38:57.953Z,21.70
2022-10-02T21:41:47.401Z,15.48
2022-10-02T21:44:32.468Z,15.43
2022-10-02T21:47:23.032Z,17.50
2022-10-02T21:50:07.581Z,16.17
2022-10-02T21:52:40.027Z,13.90
2022-10-02T21:55:25.339Z,17.30
2022-10-02T21:58:15.095Z,10.80
2022-10-02T22:01:12.486Z,10.75
2022-10-02T22:04:08.128Z,19.45
2022-10-02T22:06:43.455Z,18.42
2022-10-02T22:09:22.250Z,18.08
2022-10-02T22:12:11.033Z,17.40
2022-10-02T22:14:43.007Z,18.17
2022-10-02T22:17:31.353Z,11.82
2022-10-02T22:20:31.861Z,18.27
2022-10-02T22:23:21.854Z,15.43
2022-10-02T22:26:12.668Z,21.70
2022-10-02T22:28:48.238Z,18.35
2022-10-02T22:31:41.269Z,18.55
2022-10-02T22:34:36.293Z,13.90
2022-10-02T22:37:05.569Z,20.98
2022-10-02T22:39:38.076Z,16.70
2022-10-02T22:42:13.922Z,15.15
2022-10-02T22:44:46.179Z,17.13
2022-10-02T22:49:47.869Z,17.10
2022-10-02T22:52:25.455Z,17.13
2022-10-02T22:55:11.033Z,17.50
2022-10-02T22:57:49.790Z,15.55
2022-10-02T23:00:20.082Z,15.38
2022-10-02T23:02:52.214Z,13.18
2022-10-02T23:05:29.286Z,18.15
2022-10-02T23:08:02.032Z,13.27
2022-10-02T23:10:44.104Z,20.17
2022-10-02T23:13:30.878Z,10.10
2022-10-02T23:16:05.100Z,19.63
2022-10-02T23:18:58.545Z,11.63
2022-10-02T23:21:52.521Z,21.00
2022-10-02T23:24:34.534Z,18.67
2022-10-02T23:27:14.132Z,16.25
2022-10-02T23:29:56.437Z,18.10
2022-10-02T23:32:47.658Z,18.67
2022-10-02T23:35:43.954Z,21.20
2022-10-02T23:38:23.591Z,16.08
2022-10-02T23:41:20.296Z,18.23
2022-10-02T23:43:59.525Z,12.57
2022-10-02T23:46:31.321Z,18.38
2022-10-02T23:48:58.957Z,13.07
2022-10-02T23:51:41.132Z,12.90
2022-10-02T23:57:03.793Z,18.17
